createdAt,value
2022-12-04T00:00:26.455Z,931.32
2022-12-04T00:01:27.373Z,931.34
2022-12-04T00:02:28.420Z,931.29
2022-12-04T00:03:29.505Z,931.24
2022-12-04T00:04:30.461Z,931.29
2022-12-04T00:05:30.739Z,931.24
2022-12-04T00:06:31.439Z,931.26
2022-12-04T00:07:32.148Z,931.27
2022-12-04T00:08:33.097Z,931.27
2022-12-04T00:09:33.294Z,931.25
2022-12-04T00:10:33.610Z,931.21
2022-12-04T00:11:34.521Z,931.18
2022-12-04T00:12:35.130Z,931.24
2022-12-04T00:13:35.342Z,931.24
2022-12-04T00:14:49.229Z,931.25
2022-12-04T00:15:47.476Z,931.24
2022-12-04T00:16:48.463Z,931.24
2022-12-04T00:17:49.193Z,931.17
2022-12-04T00:18:49.868Z,931.13
2022-12-04T00:19:50.759Z,931.07
2022-12-04T00:20:51.296Z,931.08
2022-12-04T00:21:51.920Z,931.1
2022-12-04T00:22:52.827Z,931.06
2022-12-04T00:23:53.733Z,931.1
2022-12-04T00:24:54.346Z,931.14
2022-12-04T00:25:55.256Z,931.14
2022-12-04T00:26:55.982Z,931.12
2022-12-04T00:27:56.894Z,931.12
2022-12-04T00:28:57.121Z,931.2
2022-12-04T00:29:58.030Z,931.17
2022-12-04T00:30:58.665Z,931.16
2022-12-04T00:31:58.906Z,931.17
2022-12-04T00:32:59.904Z,931.14
2022-12-04T00:34:00.799Z,931.1
2022-12-04T00:35:01.518Z,931.12
2022-12-04T00:36:02.445Z,931.11
2022-12-04T00:37:02.707Z,931.08
2022-12-04T00:38:03.614Z,931.06
2022-12-04T00:39:04.563Z,931.1
2022-12-04T00:40:05.162Z,931.15
2022-12-04T00:41:05.651Z,931.14
2022-12-04T00:42:05.863Z,931.2
2022-12-04T00:43:06.069Z,931.11
2022-12-04T00:44:06.705Z,931.12
2022-12-04T00:45:06.932Z,931.11
2022-12-04T00:46:08.088Z,931.16
2022-12-04T00:47:08.995Z,931.13
2022-12-04T00:48:09.928Z,931.1
2022-12-04T00:49:10.847Z,931.02
2022-12-04T00:50:11.338Z,931.1
2022-12-04T00:51:12.246Z,931.1
2022-12-04T00:52:12.441Z,931.13
2022-12-04T00:53:13.353Z,931.14
2022-12-04T00:54:14.286Z,931.13
2022-12-04T00:55:14.491Z,931.23
2022-12-04T00:56:14.939Z,931.19
2022-12-04T00:57:15.377Z,931.16
2022-12-04T00:58:16.275Z,931.16
2022-12-04T00:59:16.493Z,931.17
2022-12-04T01:00:16.975Z,931.14
2022-12-04T01:01:17.603Z,931.15
2022-12-04T01:02:18.161Z,931.1
2022-12-04T01:03:19.230Z,931.17
2022-12-04T01:04:19.819Z,931.24
2022-12-04T01:05:20.448Z,931.15
2022-12-04T01:06:20.653Z,931.14
2022-12-04T01:07:21.658Z,931.16
2022-12-04T01:08:22.327Z,931.2
2022-12-04T01:09:23.251Z,931.2
2022-12-04T01:10:23.889Z,931.24
2022-12-04T01:11:24.098Z,931.23
2022-12-04T01:12:24.710Z,931.26
2022-12-04T01:13:24.937Z,931.29
2022-12-04T01:14:25.164Z,931.27
2022-12-04T01:15:26.074Z,931.24
2022-12-04T01:16:27.082Z,931.2
2022-12-04T01:17:28.010Z,931.15
2022-12-04T01:18:28.910Z,931.19
2022-12-04T01:19:29.120Z,931.22
2022-12-04T01:20:29.604Z,931.21
2022-12-04T01:21:30.268Z,931.19
2022-12-04T01:22:30.890Z,931.15
2022-12-04T01:23:31.093Z,931.07
2022-12-04T01:24:31.409Z,931.06
2022-12-04T01:25:32.041Z,931.04
2022-12-04T01:26:32.245Z,931.06
2022-12-04T01:27:33.261Z,931.09
2022-12-04T01:28:33.505Z,931.11
2022-12-04T01:29:33.715Z,931.12
2022-12-04T01:30:34.026Z,931.12
2022-12-04T01:31:35.025Z,931.11
2022-12-04T01:32:35.329Z,931.1
2022-12-04T01:33:36.219Z,931.04
2022-12-04T01:34:37.130Z,931.04
2022-12-04T01:35:37.323Z,931.03
2022-12-04T01:36:37.834Z,930.99
2022-12-04T01:37:38.821Z,931.01
2022-12-04T01:38:39.015Z,930.98
2022-12-04T01:39:39.205Z,930.96
2022-12-04T01:40:39.427Z,930.93
2022-12-04T01:41:40.318Z,930.94
2022-12-04T01:42:41.232Z,930.9
2022-12-04T01:43:41.764Z,930.9
2022-12-04T01:44:42.679Z,930.95
2022-12-04T01:45:43.395Z,930.9
2022-12-04T01:46:44.384Z,930.93
2022-12-04T01:47:45.388Z,930.91
2022-12-04T01:48:45.999Z,930.9
2022-12-04T01:49:46.605Z,930.88
2022-12-04T01:50:46.699Z,930.84
2022-12-04T01:51:47.637Z,930.85
2022-12-04T01:52:48.563Z,930.84
2022-12-04T01:53:49.468Z,930.88
2022-12-04T01:54:49.654Z,930.86
2022-12-04T01:55:50.542Z,930.83
2022-12-04T01:56:51.609Z,930.79
2022-12-04T01:57:52.320Z,930.8
2022-12-04T01:58:52.575Z,930.83
2022-12-04T01:59:53.843Z,930.8
2022-12-04T02:00:56.919Z,930.78
2022-12-04T02:01:54.563Z,930.83
2022-12-04T02:02:55.071Z,930.85
2022-12-04T02:03:55.495Z,930.87
2022-12-04T02:04:55.807Z,930.81
2022-12-04T02:05:56.399Z,930.83
2022-12-04T02:06:57.327Z,930.83
2022-12-04T02:07:58.136Z,930.78
2022-12-04T02:08:58.732Z,930.76
2022-12-04T02:09:59.221Z,930.75
2022-12-04T02:10:59.415Z,930.7
2022-12-04T02:12:00.305Z,930.67
2022-12-04T02:13:00.793Z,930.68
2022-12-04T02:14:01.037Z,930.7
2022-12-04T02:15:01.272Z,930.65
2022-12-04T02:16:02.173Z,930.64
2022-12-04T02:17:02.448Z,930.62
2022-12-04T02:18:03.388Z,930.65
2022-12-04T02:19:03.590Z,930.64
2022-12-04T02:20:04.485Z,930.65
2022-12-04T02:21:05.113Z,930.65
2022-12-04T02:22:05.761Z,930.68
2022-12-04T02:23:06.656Z,930.64
2022-12-04T02:24:07.565Z,930.67
2022-12-04T02:25:07.777Z,930.66
2022-12-04T02:26:08.741Z,930.7
2022-12-04T02:27:09.652Z,930.68
2022-12-04T02:28:09.946Z,930.66
2022-12-04T02:29:10.170Z,930.67
2022-12-04T02:30:10.805Z,930.67
2022-12-04T02:31:11.256Z,930.67
2022-12-04T02:32:11.838Z,930.65
2022-12-04T02:33:12.771Z,930.68
2022-12-04T02:34:13.412Z,930.7
2022-12-04T02:35:14.313Z,930.66
2022-12-04T02:36:15.247Z,930.68
2022-12-04T02:37:15.486Z,930.72
2022-12-04T02:38:16.185Z,930.67
2022-12-04T02:39:17.098Z,930.72
2022-12-04T02:40:17.284Z,930.72
2022-12-04T02:41:17.900Z,930.68
2022-12-04T02:42:18.522Z,930.7
2022-12-04T02:43:19.437Z,930.71
2022-12-04T02:44:19.681Z,930.68
2022-12-04T02:45:19.900Z,930.66
2022-12-04T02:46:20.929Z,930.68
2022-12-04T02:47:21.108Z,930.71
2022-12-04T02:48:21.119Z,930.73
2022-12-04T02:49:21.457Z,930.75
2022-12-04T02:50:22.364Z,930.74
2022-12-04T02:51:23.032Z,930.74
2022-12-04T02:52:23.698Z,930.77
2022-12-04T02:53:24.625Z,930.81
2022-12-04T02:54:25.532Z,930.76
2022-12-04T02:55:25.715Z,930.75
2022-12-04T02:56:25.898Z,930.75
2022-12-04T02:57:26.513Z,930.77
2022-12-04T02:58:26.828Z,930.74
2022-12-04T02:59:27.068Z,930.81
2022-12-04T03:00:27.272Z,930.78
2022-12-04T03:01:27.513Z,930.78
2022-12-04T03:02:28.587Z,930.72
2022-12-04T03:03:29.240Z,930.75
2022-12-04T03:04:29.571Z,930.73
2022-12-04T03:05:30.457Z,930.74
2022-12-04T03:06:31.368Z,930.68
2022-12-04T03:07:32.033Z,930.75
2022-12-04T03:08:33.067Z,930.73
2022-12-04T03:09:33.982Z,930.74
2022-12-04T03:10:34.913Z,930.71
2022-12-04T03:11:35.098Z,930.69
2022-12-04T03:12:36.033Z,930.65
2022-12-04T03:13:36.925Z,930.64
2022-12-04T03:14:37.144Z,930.69
2022-12-04T03:15:37.643Z,930.64
2022-12-04T03:16:37.892Z,930.59
2022-12-04T03:17:38.588Z,930.53
2022-12-04T03:18:39.616Z,930.53
2022-12-04T03:19:39.809Z,930.55
2022-12-04T03:20:40.148Z,930.54
2022-12-04T03:21:41.065Z,930.55
2022-12-04T03:22:41.733Z,930.53
2022-12-04T03:23:41.916Z,930.48
2022-12-04T03:24:42.097Z,930.48
2022-12-04T03:25:42.449Z,930.51
2022-12-04T03:26:43.041Z,930.51
2022-12-04T03:27:43.382Z,930.55
2022-12-04T03:28:44.105Z,930.53
2022-12-04T03:29:45.056Z,930.49
2022-12-04T03:30:45.930Z,930.51
2022-12-04T03:31:46.913Z,930.46
2022-12-04T03:32:47.811Z,930.53
2022-12-04T03:33:48.323Z,930.47
2022-12-04T03:34:48.933Z,930.51
2022-12-04T03:35:49.138Z,930.52
2022-12-04T03:36:50.054Z,930.48
2022-12-04T03:37:50.292Z,930.49
2022-12-04T03:38:50.991Z,930.46
2022-12-04T03:39:51.991Z,930.48
2022-12-04T03:40:52.453Z,930.51
2022-12-04T03:41:53.071Z,930.52
2022-12-04T03:42:53.980Z,930.47
2022-12-04T03:43:54.902Z,930.5
2022-12-04T03:44:55.848Z,930.52
2022-12-04T03:45:56.817Z,930.55
2022-12-04T03:46:57.410Z,930.55
2022-12-04T03:47:57.700Z,930.57
2022-12-04T03:48:57.841Z,930.58
2022-12-04T03:49:58.228Z,930.58
2022-12-04T03:50:58.226Z,930.57
2022-12-04T03:51:59.132Z,930.58
2022-12-04T03:52:59.347Z,930.61
2022-12-04T03:53:59.967Z,930.62
2022-12-04T03:55:00.296Z,930.63
2022-12-04T03:56:00.924Z,930.64
2022-12-04T03:57:01.267Z,930.61
2022-12-04T03:58:01.457Z,930.61
2022-12-04T03:59:01.768Z,930.57
2022-12-04T04:00:02.871Z,930.56
2022-12-04T04:01:03.334Z,930.59
2022-12-04T04:02:03.848Z,930.59
2022-12-04T04:03:04.360Z,930.56
2022-12-04T04:04:04.714Z,930.57
2022-12-04T04:05:05.616Z,930.58
2022-12-04T04:06:06.603Z,930.52
2022-12-04T04:07:07.527Z,930.52
2022-12-04T04:08:08.222Z,930.46
2022-12-04T04:09:08.872Z,930.48
2022-12-04T04:10:09.081Z,930.47
2022-12-04T04:11:09.283Z,930.45
2022-12-04T04:12:09.777Z,930.47
2022-12-04T04:13:10.412Z,930.47
2022-12-04T04:14:11.028Z,930.46
2022-12-04T04:15:12.024Z,930.38
2022-12-04T04:16:12.402Z,930.41
2022-12-04T04:17:12.889Z,930.44
2022-12-04T04:18:13.190Z,930.41
2022-12-04T04:19:14.213Z,930.42
2022-12-04T04:20:14.425Z,930.39
2022-12-04T04:21:14.639Z,930.37
2022-12-04T04:22:15.245Z,930.41
2022-12-04T04:23:16.179Z,930.36
2022-12-04T04:24:17.088Z,930.36
2022-12-04T04:25:17.712Z,930.29
2022-12-04T04:26:18.624Z,930.32
2022-12-04T04:27:19.541Z,930.36
2022-12-04T04:28:20.193Z,930.36
2022-12-04T04:29:21.208Z,930.35
2022-12-04T04:30:21.439Z,930.4
2022-12-04T04:31:22.393Z,930.44
2022-12-04T04:32:22.526Z,930.4
2022-12-04T04:33:22.718Z,930.45
2022-12-04T04:34:22.934Z,930.42
2022-12-04T04:35:23.570Z,930.42
2022-12-04T04:36:24.189Z,930.46
2022-12-04T04:37:24.400Z,930.43
2022-12-04T04:38:24.767Z,930.38
2022-12-04T04:39:25.049Z,930.38
2022-12-04T04:40:25.956Z,930.3
2022-12-04T04:41:26.580Z,930.28
2022-12-04T04:42:26.768Z,930.3
2022-12-04T04:43:26.963Z,930.28
2022-12-04T04:44:27.891Z,930.28
2022-12-04T04:45:28.407Z,930.25
2022-12-04T04:46:28.655Z,930.28
2022-12-04T04:47:29.159Z,930.26
2022-12-04T04:48:29.473Z,930.28
2022-12-04T04:49:29.786Z,930.29
2022-12-04T04:50:30.671Z,930.26
2022-12-04T04:51:30.873Z,930.28
2022-12-04T04:52:31.788Z,930.27
2022-12-04T04:53:32.466Z,930.26
2022-12-04T04:54:33.365Z,930.32
2022-12-04T04:55:33.568Z,930.33
2022-12-04T04:56:34.175Z,930.4
2022-12-04T04:57:35.068Z,930.46
2022-12-04T04:58:35.837Z,930.46
2022-12-04T04:59:36.435Z,930.44
2022-12-04T05:00:36.810Z,930.42
2022-12-04T05:01:37.812Z,930.4
2022-12-04T05:02:38.752Z,930.4
2022-12-04T05:03:38.818Z,930.39
2022-12-04T05:04:39.757Z,930.38
2022-12-04T05:05:40.397Z,930.4
2022-12-04T05:06:40.714Z,930.41
2022-12-04T05:07:40.960Z,930.39
2022-12-04T05:08:41.639Z,930.41
2022-12-04T05:09:42.213Z,930.33
2022-12-04T05:10:42.403Z,930.27
2022-12-04T05:11:42.881Z,930.27
2022-12-04T05:12:43.495Z,930.24
2022-12-04T05:13:43.832Z,930.25
2022-12-04T05:14:44.732Z,930.27
2022-12-04T05:15:45.741Z,930.26
2022-12-04T05:16:46.488Z,930.2
2022-12-04T05:17:47.115Z,930.18
2022-12-04T05:18:47.750Z,930.17
2022-12-04T05:19:48.491Z,930.18
2022-12-04T05:20:49.579Z,930.23
2022-12-04T05:21:50.203Z,930.24
2022-12-04T05:22:50.821Z,930.25
2022-12-04T05:23:51.342Z,930.23
2022-12-04T05:24:52.264Z,930.32
2022-12-04T05:25:52.452Z,930.35
2022-12-04T05:26:52.660Z,930.3
2022-12-04T05:27:53.279Z,930.24
2022-12-04T05:28:53.481Z,930.27
2022-12-04T05:29:54.596Z,930.29
2022-12-04T05:30:54.335Z,930.26
2022-12-04T05:31:54.583Z,930.26
2022-12-04T05:32:55.175Z,930.31
2022-12-04T05:33:56.082Z,930.32
2022-12-04T05:34:57.007Z,930.38
2022-12-04T05:35:57.168Z,930.38
2022-12-04T05:36:58.058Z,930.37
2022-12-04T05:37:58.948Z,930.36
2022-12-04T05:38:59.877Z,930.34
2022-12-04T05:40:00.884Z,930.34
2022-12-04T05:41:01.508Z,930.33
2022-12-04T05:42:01.696Z,930.31
2022-12-04T05:43:02.619Z,930.29
2022-12-04T05:44:02.819Z,930.3
2022-12-04T05:45:03.733Z,930.23
2022-12-04T05:46:04.459Z,930.2
2022-12-04T05:47:05.004Z,930.24
2022-12-04T05:48:05.888Z,930.19
2022-12-04T05:49:06.776Z,930.16
2022-12-04T05:50:07.665Z,930.19
2022-12-04T05:51:08.160Z,930.22
2022-12-04T05:52:08.367Z,930.21
2022-12-04T05:53:08.578Z,930.21
2022-12-04T05:54:09.087Z,930.24
2022-12-04T05:55:09.257Z,930.29
2022-12-04T05:56:10.182Z,930.27
2022-12-04T05:57:11.064Z,930.25
2022-12-04T05:58:11.176Z,930.23
2022-12-04T05:59:12.321Z,930.21
2022-12-04T06:00:12.621Z,930.19
2022-12-04T06:01:13.308Z,930.23
2022-12-04T06:02:13.650Z,930.23
2022-12-04T06:03:13.954Z,930.22
2022-12-04T06:04:14.269Z,930.24
2022-12-04T06:05:14.900Z,930.23
2022-12-04T06:06:20.934Z,930.27
2022-12-04T06:07:15.900Z,930.23
2022-12-04T06:08:16.334Z,930.26
2022-12-04T06:09:16.795Z,930.25
2022-12-04T06:10:17.049Z,930.26
2022-12-04T06:11:17.243Z,930.23
2022-12-04T06:12:17.427Z,930.21
2022-12-04T06:13:17.627Z,930.22
2022-12-04T06:14:18.236Z,930.19
2022-12-04T06:15:18.863Z,930.21
2022-12-04T06:16:19.161Z,930.18
2022-12-04T06:17:19.695Z,930.19
2022-12-04T06:18:20.616Z,930.22
2022-12-04T06:19:20.929Z,930.17
2022-12-04T06:20:22.040Z,930.16
2022-12-04T06:21:22.574Z,930.13
2022-12-04T06:22:22.765Z,930.16
2022-12-04T06:23:22.950Z,930.15
2022-12-04T06:24:23.166Z,930.16
2022-12-04T06:25:23.348Z,930.31
2022-12-04T06:26:23.967Z,930.32
2022-12-04T06:27:27.528Z,930.36
2022-12-04T06:28:25.230Z,930.36
2022-12-04T06:29:26.121Z,930.31
2022-12-04T06:30:26.797Z,930.24
2022-12-04T06:31:27.079Z,930.19
2022-12-04T06:32:27.989Z,930.16
2022-12-04T06:33:28.589Z,930.13
2022-12-04T06:34:29.482Z,930.03
2022-12-04T06:35:30.406Z,930.03
2022-12-04T06:36:30.592Z,930.07
2022-12-04T06:37:31.518Z,930.08
2022-12-04T06:38:31.727Z,930.07
2022-12-04T06:39:32.375Z,930.05
2022-12-04T06:40:32.661Z,930.06
2022-12-04T06:41:33.147Z,930.02
2022-12-04T06:42:34.233Z,929.98
2022-12-04T06:43:34.443Z,929.95
2022-12-04T06:44:34.778Z,930
2022-12-04T06:45:35.725Z,929.96
2022-12-04T06:46:35.965Z,929.98
2022-12-04T06:47:36.901Z,930
2022-12-04T06:48:37.542Z,930.02
2022-12-04T06:49:37.830Z,930.05
2022-12-04T06:50:38.329Z,930.06
2022-12-04T06:51:38.534Z,930.05
2022-12-04T06:52:38.730Z,930.13
2022-12-04T06:53:39.351Z,930.14
2022-12-04T06:54:40.301Z,930.2
2022-12-04T06:55:40.786Z,930.12
2022-12-04T06:56:40.991Z,930.07
2022-12-04T06:57:41.653Z,930.04
2022-12-04T06:58:42.546Z,930.1
2022-12-04T06:59:43.128Z,930.16
2022-12-04T07:00:44.121Z,930.26
2022-12-04T07:01:44.430Z,930.24
2022-12-04T07:02:45.165Z,930.19
2022-12-04T07:03:50.907Z,930.15
2022-12-04T07:04:46.703Z,930.18
2022-12-04T07:05:47.632Z,930.15
2022-12-04T07:06:48.246Z,930.14
2022-12-04T07:07:48.913Z,930.16
2022-12-04T07:08:49.057Z,930.21
2022-12-04T07:09:49.993Z,930.24
2022-12-04T07:10:54.416Z,930.22
2022-12-04T07:11:51.379Z,930.3
2022-12-04T07:12:52.279Z,930.3
2022-12-04T07:13:53.200Z,930.33
2022-12-04T07:14:53.694Z,930.36
2022-12-04T07:15:53.883Z,930.39
2022-12-04T07:16:54.445Z,930.34
2022-12-04T07:17:54.881Z,930.36
2022-12-04T07:18:55.776Z,930.32
2022-12-04T07:19:56.181Z,930.33
2022-12-04T07:20:56.284Z,930.41
2022-12-04T07:21:56.913Z,930.33
2022-12-04T07:22:59.368Z,930.36
2022-12-04T07:23:58.310Z,930.34
2022-12-04T07:24:58.549Z,930.33
2022-12-04T07:25:59.479Z,930.31
2022-12-04T07:27:00.418Z,930.31
2022-12-04T07:28:01.330Z,930.38
2022-12-04T07:29:02.242Z,930.4
2022-12-04T07:30:02.447Z,930.39
2022-12-04T07:31:03.017Z,930.44
2022-12-04T07:32:03.587Z,930.47
2022-12-04T07:33:03.889Z,930.47
2022-12-04T07:34:04.802Z,930.5
2022-12-04T07:35:05.716Z,930.53
2022-12-04T07:36:06.651Z,930.5
2022-12-04T07:37:07.717Z,930.5
2022-12-04T07:38:08.198Z,930.53
2022-12-04T07:39:08.410Z,930.56
2022-12-04T07:40:09.349Z,930.57
2022-12-04T07:41:09.688Z,930.51
2022-12-04T07:42:09.910Z,930.51
2022-12-04T07:43:10.783Z,930.53
2022-12-04T07:44:10.990Z,930.5
2022-12-04T07:45:11.626Z,930.51
2022-12-04T07:46:12.003Z,930.6
2022-12-04T07:47:12.742Z,930.58
2022-12-04T07:48:13.252Z,930.58
2022-12-04T07:49:13.998Z,930.57
2022-12-04T07:50:14.415Z,930.58
2022-12-04T07:51:15.183Z,930.61
2022-12-04T07:52:15.423Z,930.68
2022-12-04T07:53:16.327Z,930.69
2022-12-04T07:54:17.261Z,930.68
2022-12-04T07:55:21.674Z,930.67
2022-12-04T07:56:17.853Z,930.65
2022-12-04T07:57:18.782Z,930.67
2022-12-04T07:58:18.974Z,930.6
2022-12-04T07:59:19.312Z,930.69
2022-12-04T08:00:20.307Z,930.75
2022-12-04T08:01:21.288Z,930.77
2022-12-04T08:02:21.974Z,930.76
2022-12-04T08:03:22.663Z,930.83
2022-12-04T08:04:23.437Z,930.75
2022-12-04T08:05:24.002Z,930.82
2022-12-04T08:06:24.228Z,930.82
2022-12-04T08:07:24.563Z,930.79
2022-12-04T08:08:25.143Z,930.84
2022-12-04T08:09:26.039Z,930.88
2022-12-04T08:10:26.256Z,930.84
2022-12-04T08:11:27.261Z,930.87
2022-12-04T08:12:27.744Z,930.87
2022-12-04T08:13:27.934Z,930.86
2022-12-04T08:14:28.421Z,930.88
2022-12-04T08:15:29.333Z,930.91
2022-12-04T08:16:30.394Z,930.86
2022-12-04T08:17:31.244Z,930.91
2022-12-04T08:18:32.157Z,930.83
2022-12-04T08:19:32.645Z,930.86
2022-12-04T08:20:33.262Z,930.92
2022-12-04T08:21:34.351Z,930.94
2022-12-04T08:22:35.408Z,930.94
2022-12-04T08:23:36.329Z,930.92
2022-12-04T08:24:37.246Z,930.86
2022-12-04T08:25:38.213Z,930.86
2022-12-04T08:26:39.125Z,930.86
2022-12-04T08:27:43.233Z,930.85
2022-12-04T08:28:40.833Z,930.89
2022-12-04T08:29:41.449Z,930.88
2022-12-04T08:30:42.148Z,930.89
2022-12-04T08:31:42.386Z,930.82
2022-12-04T08:32:42.619Z,930.78
2022-12-04T08:33:43.256Z,930.82
2022-12-04T08:34:43.463Z,930.85
2022-12-04T08:35:44.456Z,930.83
2022-12-04T08:36:45.388Z,930.84
2022-12-04T08:37:46.002Z,930.81
2022-12-04T08:38:46.624Z,930.84
2022-12-04T08:39:47.248Z,930.8
2022-12-04T08:40:47.941Z,930.8
2022-12-04T08:41:52.418Z,930.79
2022-12-04T08:42:49.056Z,930.76
2022-12-04T08:43:49.973Z,930.74
2022-12-04T08:44:50.637Z,930.71
2022-12-04T08:45:50.849Z,930.7
2022-12-04T08:46:51.608Z,930.71
2022-12-04T08:47:52.641Z,930.71
2022-12-04T08:48:52.748Z,930.76
2022-12-04T08:49:53.613Z,930.73
2022-12-04T08:50:54.286Z,930.67
2022-12-04T08:51:54.603Z,930.69
2022-12-04T08:52:54.810Z,930.67
2022-12-04T08:53:55.302Z,930.71
2022-12-04T08:54:55.923Z,930.72
2022-12-04T08:55:56.580Z,930.68
2022-12-04T08:56:56.774Z,930.7
2022-12-04T08:57:57.435Z,930.68
2022-12-04T08:58:58.357Z,930.67
2022-12-04T08:59:59.273Z,930.6
2022-12-04T09:01:00.335Z,930.58
2022-12-04T09:02:00.876Z,930.6
2022-12-04T09:03:01.422Z,930.56
2022-12-04T09:04:01.735Z,930.64
2022-12-04T09:05:02.678Z,930.65
2022-12-04T09:06:03.295Z,930.64
2022-12-04T09:07:03.925Z,930.61
2022-12-04T09:08:04.611Z,930.6
2022-12-04T09:09:05.397Z,930.61
2022-12-04T09:10:06.293Z,930.63
2022-12-04T09:11:06.525Z,930.57
2022-12-04T09:12:07.256Z,930.54
2022-12-04T09:13:07.584Z,930.57
2022-12-04T09:14:08.474Z,930.62
2022-12-04T09:15:08.667Z,930.6
2022-12-04T09:16:09.368Z,930.59
2022-12-04T09:17:09.988Z,930.68
2022-12-04T09:18:10.209Z,930.66
2022-12-04T09:19:10.443Z,930.64
2022-12-04T09:20:11.092Z,930.64
2022-12-04T09:21:11.760Z,930.74
2022-12-04T09:22:12.092Z,930.72
2022-12-04T09:23:12.943Z,930.73
2022-12-04T09:24:13.282Z,930.73
2022-12-04T09:25:13.916Z,930.72
2022-12-04T09:26:14.581Z,930.71
2022-12-04T09:27:15.287Z,930.74
2022-12-04T09:28:15.498Z,930.74
2022-12-04T09:29:15.830Z,930.71
2022-12-04T09:30:16.748Z,930.73
2022-12-04T09:31:17.734Z,930.78
2022-12-04T09:32:18.419Z,930.76
2022-12-04T09:33:19.372Z,930.76
2022-12-04T09:34:20.293Z,930.79
2022-12-04T09:35:21.206Z,930.7
2022-12-04T09:36:21.858Z,930.66
2022-12-04T09:37:22.083Z,930.62
2022-12-04T09:38:22.280Z,930.6
2022-12-04T09:39:22.472Z,930.58
2022-12-04T09:40:23.387Z,930.52
2022-12-04T09:41:23.689Z,930.47
2022-12-04T09:42:23.980Z,930.5
2022-12-04T09:43:24.483Z,930.49
2022-12-04T09:44:25.398Z,930.46
2022-12-04T09:45:26.032Z,930.47
2022-12-04T09:46:27.004Z,930.41
2022-12-04T09:47:27.938Z,930.41
2022-12-04T09:48:28.459Z,930.45
2022-12-04T09:49:29.383Z,930.45
2022-12-04T09:50:29.875Z,930.44
2022-12-04T09:51:30.181Z,930.5
2022-12-04T09:52:30.953Z,930.45
2022-12-04T09:53:31.567Z,930.51
2022-12-04T09:54:32.483Z,930.58
2022-12-04T09:55:33.102Z,930.57
2022-12-04T09:56:34.040Z,930.59
2022-12-04T09:57:34.237Z,930.57
2022-12-04T09:58:35.154Z,930.49
2022-12-04T09:59:35.638Z,930.48
2022-12-04T10:00:35.823Z,930.39
2022-12-04T10:01:36.744Z,930.41
2022-12-04T10:02:37.323Z,930.32
2022-12-04T10:03:37.819Z,930.36
2022-12-04T10:04:38.219Z,930.33
2022-12-04T10:05:38.415Z,930.33
2022-12-04T10:06:39.327Z,930.3
2022-12-04T10:07:39.596Z,930.37
2022-12-04T10:08:40.551Z,930.4
2022-12-04T10:09:41.495Z,930.43
2022-12-04T10:10:42.341Z,930.4
2022-12-04T10:11:42.557Z,930.25
2022-12-04T10:12:42.858Z,930.19
2022-12-04T10:13:43.472Z,930.13
2022-12-04T10:14:44.379Z,930.1
2022-12-04T10:15:44.948Z,930.13
2022-12-04T10:16:45.508Z,930.13
2022-12-04T10:17:45.733Z,930.07
2022-12-04T10:18:46.697Z,930.04
2022-12-04T10:19:47.341Z,929.99
2022-12-04T10:20:48.287Z,929.98
2022-12-04T10:21:49.180Z,930
2022-12-04T10:22:50.261Z,930.05
2022-12-04T10:23:50.708Z,930.07
2022-12-04T10:24:51.625Z,930.1
2022-12-04T10:25:52.253Z,930.08
2022-12-04T10:26:52.908Z,930.12
2022-12-04T10:27:53.873Z,930.12
2022-12-04T10:28:55.515Z,930.14
2022-12-04T10:29:55.280Z,930.19
2022-12-04T10:30:55.722Z,930.17
2022-12-04T10:31:56.239Z,930.14
2022-12-04T10:32:57.267Z,930.09
2022-12-04T10:33:58.216Z,930.04
2022-12-04T10:34:58.426Z,930.06
2022-12-04T10:35:59.065Z,930.04
2022-12-04T10:36:59.684Z,930.11
2022-12-04T10:38:00.620Z,930.08
2022-12-04T10:39:00.813Z,930.06
2022-12-04T10:40:01.709Z,930.01
2022-12-04T10:41:01.924Z,930.01
2022-12-04T10:42:02.342Z,930.02
2022-12-04T10:43:03.042Z,929.99
2022-12-04T10:44:03.959Z,930.03
2022-12-04T10:45:04.150Z,930.08
2022-12-04T10:46:04.827Z,930.08
2022-12-04T10:47:05.067Z,930.05
2022-12-04T10:48:05.274Z,929.96
2022-12-04T10:49:06.241Z,929.9
2022-12-04T10:50:06.459Z,929.85
2022-12-04T10:51:06.676Z,929.85
2022-12-04T10:52:06.990Z,929.86
2022-12-04T10:53:12.266Z,929.9
2022-12-04T10:54:08.109Z,929.92
2022-12-04T10:55:08.733Z,929.91
2022-12-04T10:56:08.931Z,929.9
2022-12-04T10:57:09.164Z,929.88
2022-12-04T10:58:09.382Z,929.88
2022-12-04T10:59:10.322Z,929.91
2022-12-04T11:00:10.668Z,929.84
2022-12-04T11:01:10.895Z,929.89
2022-12-04T11:02:11.497Z,929.91
2022-12-04T11:03:11.474Z,929.89
2022-12-04T11:04:11.803Z,929.88
2022-12-04T11:05:12.017Z,929.89
2022-12-04T11:06:12.957Z,929.9
2022-12-04T11:07:13.592Z,929.89
2022-12-04T11:08:18.315Z,929.91
2022-12-04T11:09:14.944Z,929.93
2022-12-04T11:10:15.155Z,929.88
2022-12-04T11:11:16.062Z,929.86
2022-12-04T11:12:16.726Z,929.79
2022-12-04T11:13:17.718Z,929.75
2022-12-04T11:14:17.953Z,929.71
2022-12-04T11:15:18.452Z,929.77
2022-12-04T11:16:19.124Z,929.81
2022-12-04T11:17:19.504Z,929.87
2022-12-04T11:18:19.705Z,929.85
2022-12-04T11:19:19.943Z,929.83
2022-12-04T11:20:20.283Z,929.85
2022-12-04T11:21:20.897Z,929.83
2022-12-04T11:22:21.792Z,929.83
2022-12-04T11:23:22.601Z,929.84
2022-12-04T11:24:23.194Z,929.8
2022-12-04T11:25:23.381Z,929.74
2022-12-04T11:26:23.570Z,929.67
2022-12-04T11:27:24.550Z,929.65
2022-12-04T11:28:40.954Z,929.64
2022-12-04T11:29:25.148Z,929.74
2022-12-04T11:30:25.365Z,929.8
2022-12-04T11:31:26.309Z,929.84
2022-12-04T11:32:26.612Z,929.77
2022-12-04T11:33:27.045Z,929.68
2022-12-04T11:34:27.292Z,929.66
2022-12-04T11:35:28.264Z,929.64
2022-12-04T11:36:29.180Z,929.68
2022-12-04T11:37:30.093Z,929.65
2022-12-04T11:38:30.377Z,929.64
2022-12-04T11:39:30.563Z,929.59
2022-12-04T11:40:30.769Z,929.58
2022-12-04T11:41:30.983Z,929.58
2022-12-04T11:42:31.640Z,929.59
2022-12-04T11:43:32.074Z,929.63
2022-12-04T11:44:32.266Z,929.61
2022-12-04T11:45:32.898Z,929.62
2022-12-04T11:46:33.610Z,929.56
2022-12-04T11:47:34.243Z,929.56
2022-12-04T11:48:35.128Z,929.64
2022-12-04T11:49:39.604Z,929.64
2022-12-04T11:50:36.328Z,929.77
2022-12-04T11:51:37.234Z,929.77
2022-12-04T11:52:37.973Z,929.72
2022-12-04T11:53:38.077Z,929.67
2022-12-04T11:54:38.282Z,929.57
2022-12-04T11:55:38.892Z,929.56
2022-12-04T11:56:39.094Z,929.58
2022-12-04T11:57:39.853Z,929.59
2022-12-04T11:58:40.756Z,929.61
2022-12-04T11:59:41.663Z,929.5
2022-12-04T12:00:42.287Z,929.51
2022-12-04T12:01:43.341Z,929.52
2022-12-04T12:02:44.268Z,929.5
2022-12-04T12:03:44.980Z,929.56
2022-12-04T12:04:45.016Z,929.58
2022-12-04T12:05:45.912Z,929.6
2022-12-04T12:06:46.857Z,929.59
2022-12-04T12:07:47.803Z,929.55
2022-12-04T12:08:47.890Z,929.53
2022-12-04T12:09:48.225Z,929.52
2022-12-04T12:10:48.872Z,929.57
2022-12-04T12:11:49.360Z,929.55
2022-12-04T12:12:49.879Z,929.62
2022-12-04T12:13:50.311Z,929.65
2022-12-04T12:14:50.940Z,929.65
2022-12-04T12:15:51.420Z,929.69
2022-12-04T12:17:52.832Z,929.61
2022-12-04T12:18:53.741Z,929.56
2022-12-04T12:19:55.085Z,929.58
2022-12-04T12:20:55.749Z,929.63
2022-12-04T12:21:55.964Z,929.66
2022-12-04T12:22:56.270Z,929.57
2022-12-04T12:23:57.291Z,929.53
2022-12-04T12:24:58.116Z,929.48
2022-12-04T12:25:58.566Z,929.47
2022-12-04T12:26:59.498Z,929.47
2022-12-04T12:27:59.937Z,929.51
2022-12-04T12:29:00.414Z,929.5
2022-12-04T12:30:01.175Z,929.49
2022-12-04T12:31:05.695Z,929.46
2022-12-04T12:32:02.287Z,929.42
2022-12-04T12:33:02.687Z,929.35
2022-12-04T12:34:03.697Z,929.33
2022-12-04T12:35:04.645Z,929.44
2022-12-04T12:36:05.263Z,929.53
2022-12-04T12:37:05.908Z,929.38
2022-12-04T12:38:06.819Z,929.34
2022-12-04T12:39:07.302Z,929.3
2022-12-04T12:40:07.510Z,929.3